createdAt,value
2017-06-04T00:01:04.691Z,94.90
2017-06-04T00:03:32.254Z,94.70
2017-06-04T00:05:59.851Z,95.00
2017-06-04T00:08:27.409Z,94.90
2017-06-04T00:10:55.042Z,94.60
2017-06-04T00:13:22.609Z,94.70
2017-06-04T00:15:50.162Z,94.70
2017-06-04T00:18:17.794Z,94.80
2017-06-04T00:23:38.789Z,94.80
2017-06-04T00:26:06.419Z,95.00
2017-06-04T00:28:33.976Z,95.20
2017-06-04T00:31:01.524Z,95.40
2017-06-04T00:33:29.098Z,95.60
2017-06-04T00:35:56.668Z,95.50
2017-06-04T00:38:24.227Z,95.60
2017-06-04T00:40:51.818Z,95.60
2017-06-04T00:43:19.414Z,95.90
2017-06-04T00:45:47.007Z,96.10
2017-06-04T00:48:14.595Z,96.20
2017-06-04T00:50:42.143Z,96.50
2017-06-04T00:53:09.722Z,96.40
2017-06-04T00:55:37.278Z,96.40
2017-06-04T00:58:04.961Z,96.50
2017-06-04T01:00:33.294Z,96.70
2017-06-04T01:03:00.900Z,96.70
2017-06-04T01:05:29.275Z,96.90
2017-06-04T01:07:57.743Z,97.10
2017-06-04T01:10:25.310Z,97.00
2017-06-04T01:12:52.862Z,97.00
2017-06-04T01:15:20.405Z,97.20
2017-06-04T01:17:47.955Z,96.90
2017-06-04T01:20:15.499Z,97.20
2017-06-04T01:22:43.082Z,97.10
2017-06-04T01:25:10.762Z,97.10
2017-06-04T01:27:38.306Z,97.30
2017-06-04T01:30:05.970Z,97.50
2017-06-04T01:32:33.530Z,97.40
2017-06-04T01:35:01.092Z,97.40
2017-06-04T01:37:28.662Z,97.50
2017-06-04T01:39:56.238Z,96.90
2017-06-04T01:42:23.780Z,97.40
2017-06-04T01:44:51.339Z,97.50
2017-06-04T01:47:18.913Z,97.80
2017-06-04T01:49:46.561Z,97.60
2017-06-04T01:52:14.171Z,97.60
2017-06-04T01:54:42.502Z,98.20
2017-06-04T01:57:10.060Z,98.10
2017-06-04T01:59:37.670Z,98.20
2017-06-04T02:02:06.013Z,98.40
2017-06-04T02:04:33.563Z,98.30
2017-06-04T02:07:01.153Z,98.40
2017-06-04T02:09:28.695Z,98.20
2017-06-04T02:11:56.394Z,98.40
2017-06-04T02:14:24.735Z,98.50
2017-06-04T02:16:52.317Z,98.50
2017-06-04T02:19:19.870Z,98.70
2017-06-04T02:21:47.555Z,98.60
2017-06-04T02:24:15.929Z,99.10
2017-06-04T02:26:43.478Z,98.80
2017-06-04T02:29:11.022Z,98.70
2017-06-04T02:31:38.580Z,99.00
2017-06-04T02:34:06.186Z,99.00
2017-06-04T02:36:34.551Z,98.80
2017-06-04T02:39:02.944Z,99.40
2017-06-04T02:41:31.289Z,99.30
2017-06-04T02:43:59.074Z,99.20
2017-06-04T02:46:27.389Z,99.30
2017-06-04T02:48:54.954Z,99.20
2017-06-04T02:51:22.577Z,99.40
2017-06-04T02:53:50.147Z,99.50
2017-06-04T02:56:18.496Z,99.70
2017-06-04T02:58:46.042Z,99.70
2017-06-04T03:01:13.658Z,99.50
2017-06-04T03:03:41.963Z,99.90
2017-06-04T03:06:09.570Z,99.90
2017-06-04T03:08:37.203Z,99.90
2017-06-04T03:11:04.756Z,99.60
2017-06-04T03:13:32.335Z,99.60
2017-06-04T03:15:59.921Z,99.90
2017-06-04T03:18:27.554Z,99.80
2017-06-04T03:20:55.111Z,99.90
2017-06-04T03:23:22.679Z,99.90
2017-06-04T03:25:50.268Z,99.90
2017-06-04T03:28:17.864Z,99.90
2017-06-04T03:30:45.457Z,99.50
2017-06-04T03:33:13.022Z,99.50
2017-06-04T03:35:40.582Z,99.50
2017-06-04T03:38:08.171Z,99.30
2017-06-04T03:40:35.799Z,99.20
2017-06-04T03:43:03.446Z,98.80
2017-06-04T03:45:31.043Z,98.90
2017-06-04T03:47:58.607Z,99.30
2017-06-04T03:50:26.190Z,99.30
2017-06-04T03:52:54.558Z,99.10
2017-06-04T03:55:25.296Z,99.10
2017-06-04T03:57:52.859Z,99.20
2017-06-04T04:00:20.433Z,99.00
2017-06-04T04:02:48.849Z,99.20
2017-06-04T04:05:16.458Z,99.20
2017-06-04T04:07:44.015Z,99.20
2017-06-04T04:10:11.580Z,99.10
2017-06-04T04:12:39.194Z,99.00
2017-06-04T04:15:06.757Z,99.10
2017-06-04T04:17:34.371Z,99.30
2017-06-04T04:20:01.943Z,99.10
2017-06-04T04:22:30.270Z,99.00
2017-06-04T04:24:57.915Z,99.00
2017-06-04T04:27:25.493Z,98.90
2017-06-04T04:29:53.068Z,99.20
2017-06-04T04:32:20.624Z,99.20
2017-06-04T04:34:48.237Z,98.90
2017-06-04T04:37:16.548Z,99.20
2017-06-04T04:39:44.091Z,99.20
2017-06-04T04:42:11.694Z,99.30
2017-06-04T04:44:39.240Z,99.10
2017-06-04T04:47:06.903Z,98.80
2017-06-04T04:49:34.453Z,99.20
2017-06-04T04:52:02.034Z,99.60
2017-06-04T04:54:29.585Z,99.40
2017-06-04T04:56:57.146Z,99.80
2017-06-04T04:59:24.687Z,99.40
2017-06-04T05:01:52.218Z,99.90
2017-06-04T05:04:20.555Z,99.70
2017-06-04T05:06:48.106Z,99.60
2017-06-04T05:09:15.703Z,99.70
2017-06-04T05:11:43.281Z,99.60
2017-06-04T05:14:11.594Z,99.70
2017-06-04T05:16:39.147Z,99.60
2017-06-04T05:19:06.738Z,99.50
2017-06-04T05:21:34.282Z,99.30
2017-06-04T05:24:03.746Z,99.50
2017-06-04T05:26:32.082Z,99.90
2017-06-04T05:28:59.635Z,99.90
2017-06-04T05:31:27.318Z,99.60
2017-06-04T05:33:54.880Z,99.90
2017-06-04T05:36:22.439Z,99.90
2017-06-04T05:38:49.982Z,99.90
2017-06-04T05:41:17.519Z,99.90
2017-06-04T05:43:45.054Z,99.90
2017-06-04T05:46:13.388Z,99.90
2017-06-04T05:48:40.935Z,99.90
2017-06-04T05:51:08.478Z,99.80
2017-06-04T05:53:36.058Z,99.70
2017-06-04T05:56:03.634Z,99.70
2017-06-04T05:58:31.182Z,99.60
2017-06-04T06:00:58.732Z,99.60
2017-06-04T06:03:27.110Z,99.70
2017-06-04T06:05:54.691Z,99.30
2017-06-04T06:08:22.262Z,99.40
2017-06-04T06:10:49.915Z,98.90
2017-06-04T06:13:17.473Z,99.00
2017-06-04T06:15:45.134Z,99.20
2017-06-04T06:18:12.680Z,98.10
2017-06-04T06:20:40.224Z,99.20
2017-06-04T06:23:07.826Z,98.80
2017-06-04T06:25:35.390Z,98.50
2017-06-04T06:28:02.955Z,98.10
2017-06-04T06:30:30.501Z,98.60
2017-06-04T06:32:58.075Z,98.80
2017-06-04T06:35:25.725Z,98.40
2017-06-04T06:37:53.319Z,98.40
2017-06-04T06:40:20.858Z,98.10
2017-06-04T06:42:48.402Z,98.00
2017-06-04T06:45:15.943Z,97.60
2017-06-04T06:47:43.487Z,97.90
2017-06-04T06:50:11.906Z,98.70
2017-06-04T06:52:39.478Z,98.60
2017-06-04T06:55:07.132Z,98.80
2017-06-04T06:57:34.683Z,97.70
2017-06-04T07:00:02.283Z,98.30
2017-06-04T07:02:29.846Z,97.50
2017-06-04T07:04:57.384Z,97.70
2017-06-04T07:07:24.968Z,98.70
2017-06-04T07:09:52.511Z,98.80
2017-06-04T07:12:20.089Z,98.10
2017-06-04T07:14:47.723Z,98.00
2017-06-04T07:17:15.314Z,98.10
2017-06-04T07:19:42.942Z,98.00
2017-06-04T07:22:10.508Z,98.20
2017-06-04T07:24:38.063Z,98.50
2017-06-04T07:27:05.623Z,98.80
2017-06-04T07:29:33.286Z,98.80
2017-06-04T07:32:00.859Z,97.80
2017-06-04T07:34:28.425Z,98.50
2017-06-04T07:36:55.978Z,97.40
2017-06-04T07:39:23.638Z,97.30
2017-06-04T07:41:51.176Z,98.10
2017-06-04T07:44:18.762Z,98.20
2017-06-04T07:46:46.312Z,96.70
2017-06-04T07:49:13.899Z,96.70
2017-06-04T07:51:41.538Z,96.90
2017-06-04T07:54:09.118Z,96.70
2017-06-04T07:56:36.778Z,97.90
2017-06-04T07:59:04.331Z,98.30
2017-06-04T08:01:31.926Z,97.30
2017-06-04T08:03:59.555Z,96.50
2017-06-04T08:06:27.095Z,96.60
2017-06-04T08:08:54.678Z,97.20
2017-06-04T08:11:22.210Z,97.30
2017-06-04T08:13:49.810Z,98.30
2017-06-04T08:16:17.455Z,97.50
2017-06-04T08:18:45.018Z,97.40
2017-06-04T08:21:12.554Z,97.50
2017-06-04T08:23:40.142Z,96.90
2017-06-04T08:26:07.807Z,96.20
2017-06-04T08:28:35.342Z,95.90
2017-06-04T08:31:02.921Z,96.60
2017-06-04T08:33:31.326Z,96.70
2017-06-04T08:35:58.965Z,96.70
2017-06-04T08:38:26.510Z,95.80
2017-06-04T08:40:54.055Z,96.50
2017-06-04T08:49:09.888Z,91.20
2017-06-04T08:51:37.432Z,91.00
2017-06-04T08:54:05.762Z,91.70
2017-06-04T08:56:33.293Z,91.60
2017-06-04T08:59:00.822Z,89.80
2017-06-04T09:01:29.123Z,90.50
2017-06-04T09:03:56.706Z,90.20
2017-06-04T09:06:24.239Z,86.60
2017-06-04T09:08:51.786Z,89.70
2017-06-04T09:11:20.142Z,87.60
2017-06-04T09:13:47.679Z,87.30
2017-06-04T09:16:15.208Z,85.90
2017-06-04T09:18:42.827Z,86.60
2017-06-04T09:21:10.362Z,82.60
2017-06-04T09:23:37.895Z,84.50
2017-06-04T09:26:05.487Z,78.60
2017-06-04T09:28:33.101Z,80.00
2017-06-04T09:31:01.447Z,87.60
2017-06-04T09:33:29.082Z,87.50
2017-06-04T09:35:56.643Z,80.40
2017-06-04T09:38:24.205Z,77.90
2017-06-04T09:40:51.769Z,76.30
2017-06-04T09:43:19.419Z,79.20
2017-06-04T09:45:46.978Z,71.40
2017-06-04T09:48:14.530Z,74.70
2017-06-04T09:50:42.114Z,75.10
2017-06-04T09:53:09.666Z,77.70
2017-06-04T09:55:37.231Z,72.80
2017-06-04T09:58:04.758Z,70.40
2017-06-04T10:00:32.350Z,73.40
2017-06-04T10:02:59.878Z,73.30
2017-06-04T10:05:27.414Z,72.80
2017-06-04T10:07:55.038Z,71.80
2017-06-04T10:10:22.602Z,73.40
2017-06-04T10:12:50.138Z,68.00
2017-06-04T10:15:17.670Z,69.90
2017-06-04T10:17:45.976Z,69.40
2017-06-04T10:20:13.559Z,69.30
2017-06-04T10:22:41.125Z,71.50
2017-06-04T10:25:08.682Z,71.50
2017-06-04T10:27:36.238Z,67.40
2017-06-04T10:30:03.789Z,67.10
2017-06-04T10:32:31.322Z,67.10
2017-06-04T10:34:59.644Z,69.70
2017-06-04T10:37:27.294Z,68.70
2017-06-04T10:39:54.871Z,67.80
2017-06-04T10:42:22.426Z,67.20
2017-06-04T10:44:49.996Z,70.40
2017-06-04T10:47:17.534Z,68.90
2017-06-04T10:49:45.110Z,66.60
2017-06-04T10:52:12.674Z,66.90
2017-06-04T10:54:40.246Z,61.70
2017-06-04T10:57:07.778Z,63.30
2017-06-04T10:59:35.353Z,67.90
2017-06-04T11:02:02.882Z,65.50
2017-06-04T11:04:30.417Z,64.60
2017-06-04T11:06:58.714Z,63.00
2017-06-04T11:09:26.242Z,63.00
2017-06-04T11:11:53.862Z,65.60
2017-06-04T11:14:21.436Z,59.50
2017-06-04T11:16:49.091Z,64.20
2017-06-04T11:19:16.651Z,65.70
2017-06-04T11:21:44.195Z,64.50
2017-06-04T11:24:11.991Z,61.80
2017-06-04T11:26:39.546Z,58.50
2017-06-04T11:29:07.100Z,60.60
2017-06-04T11:31:34.658Z,64.60
2017-06-04T11:34:02.319Z,60.50
2017-06-04T11:36:29.856Z,61.60
2017-06-04T11:38:57.442Z,58.70
2017-06-04T11:41:24.975Z,57.30
2017-06-04T11:43:52.570Z,58.70
2017-06-04T11:46:20.127Z,57.10
2017-06-04T11:48:47.690Z,56.00
2017-06-04T11:51:15.257Z,56.80
2017-06-04T11:53:42.814Z,57.20
2017-06-04T11:56:10.470Z,60.40
2017-06-04T11:58:38.034Z,58.50
2017-06-04T12:01:05.695Z,57.50
2017-06-04T12:03:33.286Z,57.50
2017-06-04T12:06:00.815Z,56.60
2017-06-04T12:08:28.387Z,56.50
2017-06-04T12:10:55.954Z,59.10
2017-06-04T12:13:23.511Z,61.10
2017-06-04T12:15:51.042Z,58.00
2017-06-04T12:18:18.598Z,58.20
2017-06-04T12:20:46.189Z,55.20
2017-06-04T12:23:13.751Z,56.70
2017-06-04T12:25:41.410Z,56.30
2017-06-04T12:28:08.965Z,55.30
2017-06-04T12:30:36.499Z,52.20
2017-06-04T12:33:04.086Z,53.50
2017-06-04T12:35:31.663Z,55.70
2017-06-04T12:37:59.258Z,54.00
2017-06-04T12:40:27.576Z,55.80
2017-06-04T12:42:55.180Z,55.10
2017-06-04T12:45:23.590Z,58.90
2017-06-04T12:48:05.092Z,58.60
2017-06-04T12:50:32.694Z,58.60
2017-06-04T12:53:00.253Z,57.60
2017-06-04T12:55:27.787Z,58.60
2017-06-04T12:57:55.318Z,58.00
2017-06-04T13:00:23.638Z,56.10
2017-06-04T13:02:51.208Z,55.70
2017-06-04T13:05:18.742Z,54.00
2017-06-04T13:07:46.322Z,56.50
2017-06-04T13:10:13.995Z,58.10
2017-06-04T13:15:35.028Z,59.70
2017-06-04T13:18:02.585Z,59.30
2017-06-04T13:20:30.130Z,58.00
2017-06-04T13:22:57.667Z,59.40
2017-06-04T13:25:25.257Z,57.60
2017-06-04T13:27:52.818Z,57.50
2017-06-04T13:30:20.353Z,58.40
2017-06-04T13:32:47.946Z,54.40
2017-06-04T13:35:15.479Z,56.70
2017-06-04T13:37:43.071Z,56.90
2017-06-04T13:40:10.626Z,53.10
2017-06-04T13:42:38.196Z,55.30
2017-06-04T13:45:05.750Z,55.40
2017-06-04T13:47:33.315Z,53.20
2017-06-04T13:50:00.878Z,54.20
2017-06-04T13:52:28.430Z,55.30
2017-06-04T13:54:55.990Z,54.00
2017-06-04T13:57:23.518Z,53.60
2017-06-04T13:59:51.115Z,54.70
2017-06-04T14:02:18.770Z,52.10
2017-06-04T14:04:46.335Z,52.90
2017-06-04T14:07:14.001Z,53.70
2017-06-04T14:09:41.535Z,52.90
2017-06-04T14:12:09.123Z,54.70
2017-06-04T14:14:36.657Z,54.50
2017-06-04T14:17:04.186Z,54.60
2017-06-04T14:19:32.513Z,53.70
2017-06-04T14:22:00.051Z,53.70
2017-06-04T14:24:27.642Z,55.50
2017-06-04T14:26:55.206Z,54.40
2017-06-04T14:29:22.759Z,54.00
2017-06-04T14:31:50.294Z,53.50
2017-06-04T14:34:17.894Z,55.20
2017-06-04T14:36:45.423Z,52.30
2017-06-04T14:39:12.962Z,52.60
2017-06-04T14:41:41.259Z,53.30
2017-06-04T14:44:08.846Z,53.40
2017-06-04T14:46:36.403Z,54.10
2017-06-04T14:49:03.946Z,56.30
2017-06-04T14:51:31.553Z,55.10
2017-06-04T14:53:59.095Z,54.10
2017-06-04T14:56:26.747Z,54.60
2017-06-04T14:59:06.720Z,56.00
2017-06-04T15:01:34.363Z,55.50
2017-06-04T15:04:01.923Z,56.50
2017-06-04T15:06:29.490Z,53.30
2017-06-04T15:08:57.047Z,55.40
2017-06-04T15:11:24.614Z,51.90
2017-06-04T15:16:45.236Z,51.60
2017-06-04T15:19:12.887Z,51.70
2017-06-04T15:21:40.457Z,52.50
2017-06-04T15:24:08.096Z,55.00
2017-06-04T15:26:35.682Z,55.10
2017-06-04T15:29:03.211Z,51.40
2017-06-04T15:31:30.827Z,50.90
2017-06-04T15:33:58.354Z,52.30
2017-06-04T15:36:25.886Z,49.50
2017-06-04T15:38:53.413Z,50.10
2017-06-04T15:41:21.042Z,51.40
2017-06-04T15:43:48.577Z,49.60
2017-06-04T15:46:16.138Z,51.10
2017-06-04T15:48:43.715Z,49.40
2017-06-04T15:51:11.284Z,51.10
2017-06-04T15:53:38.851Z,49.40
2017-06-04T15:56:06.393Z,48.00
2017-06-04T15:58:33.970Z,50.50
2017-06-04T16:01:01.499Z,51.10
2017-06-04T16:03:29.084Z,50.20
2017-06-04T16:05:56.651Z,50.00
2017-06-04T16:08:24.311Z,51.10
2017-06-04T16:10:51.891Z,50.00
2017-06-04T16:13:19.435Z,50.80
2017-06-04T16:15:46.993Z,52.70
2017-06-04T16:18:14.551Z,53.30
2017-06-04T16:20:42.210Z,51.20
2017-06-04T16:23:09.844Z,52.20
2017-06-04T16:25:37.379Z,52.60
2017-06-04T16:28:05.719Z,54.20
2017-06-04T16:30:33.287Z,54.00
2017-06-04T16:33:00.842Z,54.60
2017-06-04T16:35:28.385Z,56.40
2017-06-04T16:37:55.929Z,55.40
2017-06-04T16:40:23.517Z,55.80
2017-06-04T16:42:51.119Z,55.50
2017-06-04T16:45:18.761Z,57.00
2017-06-04T16:47:46.308Z,55.60
2017-06-04T16:50:13.857Z,56.20
2017-06-04T16:52:41.436Z,57.00
2017-06-04T16:55:09.076Z,58.20
2017-06-04T16:57:36.683Z,57.60
2017-06-04T17:00:04.218Z,57.60
2017-06-04T17:02:31.818Z,58.10
2017-06-04T17:05:00.124Z,58.70
2017-06-04T17:07:27.718Z,58.60
2017-06-04T17:09:55.255Z,59.70
2017-06-04T17:12:22.783Z,60.30
2017-06-04T17:14:51.079Z,58.80
2017-06-04T17:17:18.630Z,58.80
2017-06-04T17:19:46.958Z,57.70
2017-06-04T17:22:14.511Z,57.60
2017-06-04T17:24:42.173Z,57.60
2017-06-04T17:27:09.735Z,57.20
2017-06-04T17:29:37.290Z,57.30
2017-06-04T17:32:04.837Z,58.30
2017-06-04T17:34:32.422Z,58.40
2017-06-04T17:36:59.983Z,58.60
2017-06-04T17:39:27.510Z,59.30
2017-06-04T17:41:55.107Z,59.80
2017-06-04T17:44:22.634Z,57.90
2017-06-04T17:46:50.230Z,58.10
2017-06-04T17:49:17.803Z,58.90
2017-06-04T17:51:45.347Z,58.40
2017-06-04T17:54:12.880Z,58.00
2017-06-04T17:56:40.467Z,59.30
2017-06-04T17:59:08.002Z,59.20
2017-06-04T18:01:35.539Z,59.90
2017-06-04T18:04:03.843Z,59.50
2017-06-04T18:06:31.374Z,59.50
2017-06-04T18:08:59.803Z,61.30
2017-06-04T18:11:27.370Z,61.40
2017-06-04T18:13:54.902Z,62.10
2017-06-04T18:16:22.495Z,62.30
2017-06-04T18:18:50.019Z,62.30
2017-06-04T18:21:17.555Z,62.60
2017-06-04T18:23:45.887Z,62.50
2017-06-04T18:26:13.451Z,62.40
2017-06-04T18:28:40.985Z,61.80
2017-06-04T18:31:08.570Z,61.60
2017-06-04T18:33:36.141Z,62.00
2017-06-04T18:36:03.693Z,62.40
2017-06-04T18:38:31.362Z,63.40
2017-06-04T18:40:58.902Z,62.90
2017-06-04T18:43:26.480Z,63.20
2017-06-04T18:45:54.042Z,61.80
2017-06-04T18:48:21.692Z,60.30
2017-06-04T18:50:49.262Z,63.10
2017-06-04T18:53:16.827Z,62.60
2017-06-04T18:55:44.359Z,63.00
2017-06-04T18:58:11.942Z,64.60
2017-06-04T19:00:39.700Z,66.10
2017-06-04T19:03:07.282Z,67.20
2017-06-04T19:05:34.842Z,66.70
2017-06-04T19:08:02.375Z,67.50
2017-06-04T19:10:29.948Z,68.00
2017-06-04T19:12:57.487Z,68.80
2017-06-04T19:15:25.069Z,68.60
2017-06-04T19:17:52.631Z,69.20
2017-06-04T19:20:20.196Z,69.60
2017-06-04T19:22:47.758Z,70.30
2017-06-04T19:25:15.383Z,69.90
2017-06-04T19:27:42.931Z,71.00
2017-06-04T19:30:14.246Z,72.90
2017-06-04T19:32:41.784Z,72.90
2017-06-04T19:35:09.320Z,72.90
2017-06-04T19:37:36.850Z,70.50
2017-06-04T19:40:05.166Z,71.80
2017-06-04T19:42:32.707Z,70.90
2017-06-04T19:45:00.245Z,72.50
2017-06-04T19:47:27.901Z,72.90
2017-06-04T19:49:55.503Z,72.40
2017-06-04T19:52:23.050Z,73.70
2017-06-04T19:54:51.429Z,78.10
2017-06-04T19:57:19.777Z,79.50
2017-06-04T19:59:47.329Z,79.40
2017-06-04T20:02:14.915Z,80.10
2017-06-04T20:04:42.503Z,81.50
2017-06-04T20:07:10.131Z,82.10
2017-06-04T20:09:37.767Z,82.20
2017-06-04T20:12:05.334Z,82.50
2017-06-04T20:14:32.949Z,84.10
2017-06-04T20:17:00.561Z,86.10
2017-06-04T20:19:28.246Z,86.40
2017-06-04T20:21:56.733Z,88.40
2017-06-04T20:24:25.616Z,90.50
2017-06-04T20:26:53.218Z,90.50
2017-06-04T20:29:20.791Z,90.00
2017-06-04T20:31:48.425Z,91.00
2017-06-04T20:34:16.752Z,91.10
2017-06-04T20:36:44.322Z,91.10
2017-06-04T20:39:11.878Z,91.20
2017-06-04T20:41:39.419Z,90.50
2017-06-04T20:44:07.014Z,90.50
2017-06-04T20:46:34.563Z,91.00
2017-06-04T20:49:02.246Z,90.80
2017-06-04T20:51:29.871Z,90.70
2017-06-04T20:53:57.587Z,91.00
2017-06-04T20:56:25.953Z,90.90
2017-06-04T20:58:53.507Z,90.80
2017-06-04T21:01:21.116Z,90.90
2017-06-04T21:03:48.695Z,90.80
2017-06-04T21:06:16.295Z,90.90
2017-06-04T21:08:43.830Z,90.90
2017-06-04T21:11:11.474Z,91.10
2017-06-04T21:13:39.093Z,91.10
2017-06-04T21:16:06.767Z,91.30
2017-06-04T21:18:35.181Z,91.90
2017-06-04T21:21:02.841Z,91.80
2017-06-04T21:23:30.519Z,92.20
2017-06-04T21:25:58.125Z,92.20
2017-06-04T21:28:25.757Z,92.20
2017-06-04T21:30:53.415Z,92.10
2017-06-04T21:33:21.102Z,92.00
2017-06-04T21:35:49.140Z,92.30
2017-06-04T21:38:16.765Z,92.10
2017-06-04T21:40:45.095Z,92.30
2017-06-04T21:43:12.705Z,92.20
2017-06-04T21:45:41.058Z,92.70
2017-06-04T21:48:08.646Z,92.70
2017-06-04T21:50:37.021Z,92.80
2017-06-04T21:53:05.399Z,92.70
2017-06-04T21:55:33.796Z,92.30
2017-06-04T21:58:01.384Z,92.30
2017-06-04T22:00:29.016Z,92.70
2017-06-04T22:02:56.606Z,92.50
2017-06-04T22:05:24.307Z,92.40
2017-06-04T22:07:51.862Z,92.60
2017-06-04T22:10:19.524Z,92.60
2017-06-04T22:12:47.141Z,92.70
2017-06-04T22:15:14.739Z,92.70
2017-06-04T22:17:42.458Z,92.70
2017-06-04T22:20:10.068Z,93.00
2017-06-04T22:22:37.647Z,92.90
2017-06-04T22:25:05.230Z,92.70
2017-06-04T22:27:33.630Z,93.40
2017-06-04T22:30:01.307Z,93.30
2017-06-04T22:32:29.066Z,93.30
2017-06-04T22:34:56.726Z,93.20
2017-06-04T22:37:24.520Z,92.90
2017-06-04T22:39:52.117Z,93.00
2017-06-04T22:42:20.479Z,93.00
2017-06-04T22:44:48.124Z,93.00
2017-06-04T22:47:15.765Z,92.70
2017-06-04T22:49:43.373Z,92.70
2017-06-04T22:52:10.924Z,92.80
2017-06-04T22:54:38.567Z,93.10
2017-06-04T22:57:06.181Z,92.80
2017-06-04T22:59:34.647Z,93.10
2017-06-04T23:02:02.235Z,93.10
2017-06-04T23:04:29.901Z,93.00
2017-06-04T23:06:57.498Z,93.10
2017-06-04T23:09:25.081Z,93.10
2017-06-04T23:11:52.637Z,93.20
2017-06-04T23:14:20.268Z,93.10
2017-06-04T23:16:47.929Z,93.40
2017-06-04T23:19:15.596Z,93.40
2017-06-04T23:21:43.219Z,93.10
2017-06-04T23:24:11.597Z,93.30
2017-06-04T23:26:40.035Z,93.70
2017-06-04T23:29:07.781Z,93.60
2017-06-04T23:31:35.493Z,93.70
2017-06-04T23:34:03.208Z,93.60
2017-06-04T23:36:30.970Z,93.90
2017-06-04T23:38:58.681Z,93.80
2017-06-04T23:41:26.370Z,94.00
2017-06-04T23:43:54.867Z,94.00
2017-06-04T23:46:22.630Z,94.00
2017-06-04T23:48:50.289Z,94.20
2017-06-04T23:51:18.761Z,94.30
2017-06-04T23:53:47.281Z,94.40
2017-06-04T23:56:15.046Z,94.30
2017-06-04T23:58:42.812Z,94.10
